Time;durP1;ratioP1;P1;durP2;ratioP2;P2;SDS_P1;SDS_P2;PMS_P1;PMS_P2;Temp;Humidity;BMP_temperature;BMP_pressure;BME280_temperature;BME280_humidity;BME280_pressure;Samples;Min_cycle;Max_cycle;Signal;HPM_P1;HPM_P2
2022/12/23 00:01:03;;;;;;;32.23;10.43;;;;;;;-145.18;100.00;46691.66;5029245;28;20026;-73
2022/12/23 00:03:30;;;;;;;38.07;10.80;;;;;;;-145.18;100.00;46689.69;5030209;28;20041;-73
2022/12/23 00:05:56;;;;;;;31.97;11.00;;;;;;;-145.18;100.00;46695.56;5030166;28;20037;-73
2022/12/23 00:08:22;;;;;;;36.57;10.40;;;;;;;-145.18;100.00;46685.78;5029776;28;20040;-73
2022/12/23 00:10:49;;;;;;;24.27;10.10;;;;;;;-145.18;100.00;46689.69;5030477;28;20040;-73
2022/12/23 00:16:08;;;;;;;32.50;10.60;;;;;;;-145.18;100.00;46693.59;5029082;28;20617;-73
2022/12/23 00:18:34;;;;;;;27.93;9.20;;;;;;;-145.18;100.00;46687.75;5029790;28;20033;-73
2022/12/23 00:21:05;;;;;;;32.73;10.30;;;;;;;-145.18;100.00;46697.50;5030052;28;20104;-74
2022/12/23 00:23:32;;;;;;;31.50;9.83;;;;;;;-145.18;100.00;46699.47;5029678;28;20065;-73
2022/12/23 00:25:57;;;;;;;32.17;11.80;;;;;;;-145.18;100.00;46676.03;5029861;28;20033;-73
2022/12/23 00:28:24;;;;;;;44.17;12.57;;;;;;;-145.18;100.00;46685.78;5029775;28;20042;-73
2022/12/23 00:31:17;;;;;;;38.77;12.63;;;;;;;-145.18;100.00;46687.75;5029752;28;20765;-73
2022/12/23 00:33:45;;;;;;;38.50;11.93;;;;;;;-145.18;100.00;46697.50;5025861;28;20112;-73
2022/12/23 00:36:18;;;;;;;35.23;11.37;;;;;;;-145.18;100.00;46691.66;5029667;28;20022;-73
2022/12/23 00:44:12;;;;;;;49.40;13.27;;;;;;;-145.18;100.00;46685.78;5029992;28;20048;-73
2022/12/23 00:46:37;;;;;;;37.60;13.40;;;;;;;-145.18;100.00;46687.75;5028138;28;20041;-73
2022/12/23 00:51:47;;;;;;;49.73;12.27;;;;;;;-145.18;100.00;46679.94;5029922;28;20111;-73
2022/12/23 00:54:12;;;;;;;44.20;13.20;;;;;;;-145.18;100.00;46695.56;5029460;28;20493;-73
2022/12/23 00:56:38;;;;;;;45.87;12.33;;;;;;;-145.18;100.00;46689.69;5029201;28;20033;-73
2022/12/23 00:59:03;;;;;;;51.30;13.00;;;;;;;-145.18;100.00;46689.69;5029748;28;20096;-73
2022/12/23 01:06:57;;;;;;;54.00;13.60;;;;;;;-145.18;100.00;46689.69;5029152;28;20068;-73
2022/12/23 01:09:23;;;;;;;42.70;11.37;;;;;;;-145.18;100.00;46679.94;5029178;28;20460;-73
2022/12/23 01:11:48;;;;;;;48.93;11.37;;;;;;;-145.18;100.00;46685.78;5028825;28;20036;-73
2022/12/23 01:14:14;;;;;;;38.20;10.40;;;;;;;-145.18;100.00;46685.78;5029017;28;20509;-73
2022/12/23 01:16:40;;;;;;;47.43;9.97;;;;;;;-145.18;100.00;46679.94;5028694;28;20037;-73
2022/12/23 01:19:06;;;;;;;35.03;8.23;;;;;;;-145.18;100.00;46679.94;5029486;28;20031;-73
2022/12/23 01:21:32;;;;;;;33.63;9.17;;;;;;;-145.18;100.00;46683.84;5028785;28;20116;-73
2022/12/23 01:23:58;;;;;;;42.70;10.67;;;;;;;-145.18;100.00;46691.66;5026240;28;20033;-73
2022/12/23 01:26:23;;;;;;;42.30;12.33;;;;;;;-145.18;100.00;46681.88;5028648;28;20025;-73
2022/12/23 01:28:54;;;;;;;35.63;12.30;;;;;;;-145.18;100.00;46683.84;5029105;28;20438;-73
2022/12/23 01:31:19;;;;;;;36.80;12.60;;;;;;;-145.18;100.00;46681.88;5028636;28;20034;-73
2022/12/23 01:33:44;;;;;;;46.83;12.57;;;;;;;-145.18;100.00;46683.84;5029024;28;20034;-73
2022/12/23 01:36:10;;;;;;;48.70;13.70;;;;;;;-145.18;100.00;46689.69;5029012;28;20025;-73
2022/12/23 01:38:35;;;;;;;45.30;11.97;;;;;;;-145.18;100.00;46681.88;5028555;28;20029;-73
2022/12/23 01:41:01;;;;;;;51.07;11.83;;;;;;;-145.18;100.00;46683.84;5028969;28;20719;-73
2022/12/23 01:43:49;;;;;;;49.30;12.17;;;;;;;-145.18;100.00;46679.94;5028608;28;20025;-73
2022/12/23 01:46:15;;;;;;;40.27;12.50;;;;;;;-145.18;100.00;46691.66;5028536;28;20041;-73
2022/12/23 01:48:46;;;;;;;45.73;12.60;;;;;;;-145.18;100.00;46683.84;5028724;28;20291;-73
2022/12/23 01:51:17;;;;;;;41.37;11.50;;;;;;;-145.18;100.00;46685.78;5028848;28;20037;-73
2022/12/23 01:53:48;;;;;;;44.83;12.03;;;;;;;-145.18;100.00;46685.78;5028469;28;20321;-73
2022/12/23 01:56:23;;;;;;;30.17;10.83;;;;;;;-145.18;100.00;46685.78;5027084;28;20052;-73
2022/12/23 01:59:06;;;;;;;37.60;10.98;;;;;;;-145.18;100.00;46683.84;5028556;28;20021;-73
2022/12/23 02:04:19;;;;;;;32.37;10.63;;;;;;;-145.18;100.00;46683.84;5028400;28;20068;-73
2022/12/23 02:09:34;;;;;;;38.40;12.80;;;;;;;-145.18;100.00;46687.75;5028375;28;20040;-73
2022/12/23 02:12:27;;;;;;;37.23;12.40;;;;;;;-145.18;100.00;46679.94;5028452;28;20047;-73
2022/12/23 02:18:31;;;;;;;42.00;13.93;;;;;;;-145.18;100.00;46683.84;5017425;28;20393;-73
2022/12/23 02:20:59;;;;;;;53.03;17.00;;;;;;;-145.18;100.00;46687.75;5032696;28;20025;-73
2022/12/23 02:24:02;;;;;;;38.23;15.10;;;;;;;-145.18;100.00;46681.88;5031852;28;20037;-72
2022/12/23 02:27:05;;;;;;;52.97;14.40;;;;;;;-145.18;100.00;46689.69;5013967;28;20180;-72
2022/12/23 02:29:36;;;;;;;46.93;13.93;;;;;;;-145.18;100.00;46681.88;5031796;28;20033;-72
2022/12/23 02:32:23;;;;;;;45.23;14.13;;;;;;;-145.18;100.00;46685.78;5031900;28;20041;-72
2022/12/23 02:35:07;;;;;;;47.90;15.00;;;;;;;-145.18;100.00;46677.97;5032125;28;20422;-73
2022/12/23 02:37:34;;;;;;;45.57;15.33;;;;;;;-145.18;100.00;46683.84;5029675;28;20034;-73
2022/12/23 02:40:19;;;;;;;46.97;14.70;;;;;;;-145.18;100.00;46687.75;5032131;28;20026;-73
2022/12/23 02:42:53;;;;;;;40.33;14.27;;;;;;;-145.18;100.00;46687.75;5031712;28;20500;-73
2022/12/23 02:45:29;;;;;;;39.03;14.87;;;;;;;-145.18;100.00;46693.59;5031975;28;20033;-73
2022/12/23 02:48:03;;;;;;;43.47;16.03;;;;;;;-145.18;100.00;46689.69;5031344;28;20270;-73
2022/12/23 02:50:33;;;;;;;41.97;15.23;;;;;;;-145.18;100.00;46681.88;5030622;28;20029;-73
2022/12/23 02:53:19;;;;;;;38.10;14.10;;;;;;;-145.18;100.00;46683.84;5031742;28;20755;-73
2022/12/23 02:55:47;;;;;;;40.63;13.10;;;;;;;-145.18;100.00;46683.84;5031926;28;20285;-72
2022/12/23 02:58:15;;;;;;;33.43;13.37;;;;;;;-145.18;100.00;46683.84;5031538;28;20512;-73
2022/12/23 03:03:16;;;;;;;29.30;12.23;;;;;;;-145.18;100.00;46687.75;4499424;22;20072;-73
2022/12/23 03:05:46;;;;;;;39.50;13.73;;;;;;;-145.18;100.00;46681.88;5028783;28;20033;-73
2022/12/23 03:08:38;;;;;;;30.77;13.90;;;;;;;-145.18;100.00;46685.78;5025901;28;20513;-73
2022/12/23 03:11:07;;;;;;;29.07;14.07;;;;;;;-145.18;100.00;46683.84;5015721;28;20271;-73
2022/12/23 03:13:57;;;;;;;40.17;13.63;;;;;;;-145.18;100.00;46683.84;5027838;28;20025;-73
2022/12/23 03:16:32;;;;;;;27.83;13.03;;;;;;;-145.18;100.00;46683.84;5019054;28;20084;-73
2022/12/23 03:19:09;;;;;;;30.03;12.97;;;;;;;-145.18;100.00;46683.84;5030265;28;20348;-73
2022/12/23 03:21:49;;;;;;;37.43;14.97;;;;;;;-145.18;100.00;46681.88;5012715;28;20069;-73
2022/12/23 03:24:43;;;;;;;31.23;14.70;;;;;;;-145.18;100.00;46676.03;5014453;28;20281;-73
2022/12/23 03:27:17;;;;;;;37.27;14.70;;;;;;;-145.18;100.00;46683.84;5018568;28;20030;-73
2022/12/23 03:30:03;;;;;;;35.73;14.67;;;;;;;-145.18;100.00;46687.75;5012628;28;20033;-73
2022/12/23 03:32:35;;;;;;;31.25;14.38;;;;;;;-145.18;100.00;46683.84;5012421;28;20508;-73
2022/12/23 03:35:03;;;;;;;33.70;15.00;;;;;;;-145.18;100.00;46683.84;5011878;28;20793;-73
2022/12/23 03:37:31;;;;;;;37.73;14.63;;;;;;;-145.18;100.00;46685.78;5012372;28;20441;-73
2022/12/23 03:40:15;;;;;;;34.03;14.70;;;;;;;-145.18;100.00;46687.75;5012268;28;20042;-73
2022/12/23 03:42:46;;;;;;;38.63;16.30;;;;;;;-145.18;100.00;46685.78;5012190;28;20044;-73
2022/12/23 03:45:21;;;;;;;42.10;15.77;;;;;;;-145.18;100.00;46689.69;5012158;28;20113;-73
2022/12/23 03:47:51;;;;;;;40.70;16.40;;;;;;;-145.18;100.00;46679.94;4994484;28;20076;-73
2022/12/23 03:50:19;;;;;;;37.23;15.50;;;;;;;-145.18;100.00;46685.78;5031139;28;20037;-73
2022/12/23 03:52:50;;;;;;;38.73;16.10;;;;;;;-145.18;100.00;46677.97;5031476;28;20034;-73
2022/12/23 03:55:25;;;;;;;43.07;16.23;;;;;;;-145.18;100.00;46683.84;5031835;28;20036;-73
2022/12/23 03:58:14;;;;;;;37.17;15.18;;;;;;;-145.18;100.00;46687.75;5028820;28;20127;-73
2022/12/23 04:00:46;;;;;;;44.67;16.57;;;;;;;-145.18;100.00;46679.94;5020594;28;20065;-73
2022/12/23 04:03:39;;;;;;;32.57;15.37;;;;;;;-145.18;100.00;46681.88;5011392;28;20084;-73
2022/12/23 04:06:13;;;;;;;34.77;16.87;;;;;;;-145.18;100.00;46679.94;5011495;28;20514;-73
2022/12/23 04:08:40;;;;;;;34.03;15.47;;;;;;;-145.18;100.00;46687.75;5011487;28;20072;-73
2022/12/23 04:11:06;;;;;;;34.30;14.87;;;;;;;-145.18;100.00;46691.66;5011811;28;20039;-73
2022/12/23 04:13:32;;;;;;;39.97;15.40;;;;;;;-145.18;100.00;46685.78;4995988;28;20035;-73
2022/12/23 04:15:59;;;;;;;36.53;15.40;;;;;;;-145.18;100.00;46683.84;4974618;28;20092;-73
2022/12/23 04:18:24;;;;;;;35.03;14.03;;;;;;;-145.18;100.00;46691.66;4991796;28;20503;-73
2022/12/23 04:20:49;;;;;;;31.73;13.57;;;;;;;-145.18;100.00;46685.78;4992129;28;20054;-73
2022/12/23 04:23:15;;;;;;;36.63;12.90;;;;;;;-145.18;100.00;46687.75;4991658;28;20030;-73
2022/12/23 04:25:40;;;;;;;34.07;13.90;;;;;;;-145.18;100.00;46683.84;4992328;28;20429;-73
2022/12/23 04:28:06;;;;;;;45.90;15.83;;;;;;;-145.18;100.00;46685.78;5010942;28;20030;-73
2022/12/23 04:30:31;;;;;;;34.60;14.90;;;;;;;-145.18;100.00;46674.06;5011427;28;20057;-73
2022/12/23 04:32:57;;;;;;;40.97;14.43;;;;;;;-145.18;100.00;46691.66;4998036;28;20495;-73
2022/12/23 04:35:22;;;;;;;36.23;16.13;;;;;;;-145.18;100.00;46695.56;5001450;28;20034;-71
2022/12/23 04:37:47;;;;;;;44.00;16.63;;;;;;;-145.18;100.00;46689.69;4997633;28;20474;-71
2022/12/23 04:40:13;;;;;;;46.60;15.57;;;;;;;-145.18;100.00;46691.66;4980857;28;20034;-71
2022/12/23 04:42:38;;;;;;;41.07;15.30;;;;;;;-145.18;100.00;46701.41;4994215;28;20042;-72
2022/12/23 04:45:04;;;;;;;44.03;15.73;;;;;;;-145.18;100.00;46681.88;5010726;28;20040;-72
2022/12/23 04:47:29;;;;;;;46.00;15.67;;;;;;;-145.18;100.00;46697.50;5007170;28;20035;-72
2022/12/23 04:49:55;;;;;;;45.53;15.30;;;;;;;-145.18;100.00;46699.47;4991379;28;20548;-72
2022/12/23 04:52:20;;;;;;;33.27;14.00;;;;;;;-145.18;100.00;46707.28;4998578;28;20040;-73
2022/12/23 04:54:46;;;;;;;48.60;15.30;;;;;;;-145.18;100.00;46693.59;4991103;28;20034;-73
2022/12/23 04:57:11;;;;;;;33.77;13.77;;;;;;;-145.18;100.00;46689.69;4991494;28;20066;-73
2022/12/23 04:59:37;;;;;;;36.20;14.13;;;;;;;-145.18;100.00;46689.69;4991042;28;20034;-73
2022/12/23 05:02:02;;;;;;;37.53;13.23;;;;;;;-145.18;100.00;46697.50;4990657;28;20038;-73
2022/12/23 05:04:27;;;;;;;31.37;13.20;;;;;;;-145.18;100.00;46689.69;4973887;28;20030;-73
2022/12/23 05:06:53;;;;;;;34.97;12.80;;;;;;;-145.18;100.00;46691.66;4991337;28;20056;-73
2022/12/23 05:09:18;;;;;;;28.40;12.73;;;;;;;-145.18;100.00;46691.66;4979508;28;20046;-73
2022/12/23 05:11:44;;;;;;;39.43;13.03;;;;;;;-145.18;100.00;46693.59;4991868;28;20552;-73
2022/12/23 05:14:10;;;;;;;31.73;12.63;;;;;;;-145.18;100.00;46691.66;4978595;28;20612;-73
2022/12/23 05:16:36;;;;;;;31.73;13.17;;;;;;;-145.18;100.00;46693.59;5006115;28;20508;-73
2022/12/23 05:19:01;;;;;;;31.20;12.57;;;;;;;-145.18;100.00;46689.69;4999821;28;20113;-73
2022/12/23 05:21:27;;;;;;;29.73;12.53;;;;;;;-145.18;100.00;46689.69;4998254;28;20495;-73
2022/12/23 05:23:52;;;;;;;33.03;12.37;;;;;;;-145.18;100.00;46685.78;4973035;28;20038;-73
2022/12/23 05:26:18;;;;;;;27.83;12.00;;;;;;;-145.18;100.00;46691.66;4994719;28;20048;-73
2022/12/23 05:28:44;;;;;;;26.43;11.53;;;;;;;-145.18;100.00;46699.47;4990384;28;20069;-73
2022/12/23 05:31:11;;;;;;;22.33;10.17;;;;;;;-145.18;100.00;46691.66;4990386;28;20053;-72
2022/12/23 05:33:37;;;;;;;20.23;9.83;;;;;;;-145.18;100.00;46697.50;4990681;28;20509;-73
2022/12/23 05:36:03;;;;;;;21.13;10.70;;;;;;;-145.18;100.00;46695.56;4990631;28;20058;-73
2022/12/23 05:38:28;;;;;;;23.57;10.07;;;;;;;-145.18;100.00;46689.69;4991445;28;20049;-73
2022/12/23 05:40:54;;;;;;;24.20;11.33;;;;;;;-145.18;100.00;46703.38;4985474;28;20128;-73
2022/12/23 05:43:19;;;;;;;23.17;11.60;;;;;;;-145.18;100.00;46691.66;5009887;28;20034;-73
2022/12/23 05:45:46;;;;;;;31.03;11.80;;;;;;;-145.18;100.00;46689.69;5010090;28;20040;-73
2022/12/23 05:48:11;;;;;;;30.00;13.17;;;;;;;-145.18;100.00;46699.47;5002417;28;20046;-73
2022/12/23 05:50:38;;;;;;;33.20;12.33;;;;;;;-145.18;100.00;46701.41;5004862;28;20041;-73
2022/12/23 05:53:04;;;;;;;42.33;14.10;;;;;;;-145.18;100.00;46693.59;5013401;28;20048;-73
2022/12/23 05:55:29;;;;;;;48.27;15.70;;;;;;;-145.18;100.00;46691.66;4996404;28;20030;-73
2022/12/23 05:57:55;;;;;;;47.40;16.20;;;;;;;-145.18;100.00;46699.47;5013757;28;20571;-73
2022/12/23 06:00:20;;;;;;;50.70;16.53;;;;;;;-145.18;100.00;46697.50;5013119;28;20466;-73
2022/12/23 06:02:46;;;;;;;47.77;17.10;;;;;;;-145.18;100.00;46687.75;5013281;28;20061;-73
2022/12/23 06:05:12;;;;;;;49.87;16.07;;;;;;;-145.18;100.00;46699.47;4999021;28;20038;-73
2022/12/23 06:07:38;;;;;;;52.80;16.40;;;;;;;-145.18;100.00;46699.47;4981472;28;20084;-73
2022/12/23 06:10:05;;;;;;;53.80;15.73;;;;;;;-145.18;100.00;46693.59;5013470;28;20076;-73
2022/12/23 06:12:30;;;;;;;49.30;15.27;;;;;;;-145.18;100.00;46699.47;5000354;28;20125;-73
2022/12/23 06:14:55;;;;;;;56.37;16.47;;;;;;;-145.18;100.00;46699.47;4994269;28;20618;-73
2022/12/23 06:17:21;;;;;;;58.27;16.17;;;;;;;-145.18;100.00;46697.50;5000697;28;20033;-73
2022/12/23 06:19:47;;;;;;;59.90;17.90;;;;;;;-145.18;100.00;46699.47;4995996;28;20060;-73
2022/12/23 06:22:12;;;;;;;52.73;16.57;;;;;;;-145.18;100.00;46689.69;4993668;28;20065;-73
2022/12/23 06:24:38;;;;;;;60.27;18.10;;;;;;;-145.18;100.00;46697.50;5000359;28;20060;-73
2022/12/23 06:27:04;;;;;;;58.17;17.87;;;;;;;-145.18;100.00;46697.50;4992275;28;20041;-73
2022/12/23 06:29:30;;;;;;;70.23;19.87;;;;;;;-145.18;100.00;46689.69;4993016;28;20038;-73
2022/12/23 06:31:55;;;;;;;66.63;19.33;;;;;;;-145.18;100.00;46689.69;4994019;28;20030;-73
2022/12/23 06:34:20;;;;;;;67.87;19.37;;;;;;;-145.18;100.00;46691.66;4997352;28;20537;-73
2022/12/23 06:36:46;;;;;;;57.83;18.07;;;;;;;-145.18;100.00;46683.84;4986395;28;20114;-73
2022/12/23 06:39:11;;;;;;;61.47;20.30;;;;;;;-145.18;100.00;46697.50;4993577;28;20096;-73
2022/12/23 06:41:37;;;;;;;56.90;18.73;;;;;;;-145.18;100.00;46695.56;4993908;28;20046;-73
2022/12/23 06:44:02;;;;;;;69.30;20.20;;;;;;;-145.18;100.00;46695.56;4994560;28;20120;-73
2022/12/23 06:46:27;;;;;;;59.90;19.23;;;;;;;-145.18;100.00;46703.38;5011662;28;20410;-73
2022/12/23 06:48:53;;;;;;;58.30;18.93;;;;;;;-145.18;100.00;46693.59;5013056;28;20108;-73
2022/12/23 06:51:18;;;;;;;43.90;17.10;;;;;;;-145.18;100.00;46701.41;5012868;28;20045;-73
2022/12/23 06:53:44;;;;;;;51.30;18.13;;;;;;;-145.18;100.00;46687.75;5005611;28;20026;-73
2022/12/23 06:56:09;;;;;;;51.10;20.40;;;;;;;-145.18;100.00;46703.38;4993519;28;20038;-73
2022/12/23 06:58:34;;;;;;;68.53;20.30;;;;;;;-145.18;100.00;46703.38;4978908;28;20027;-73
2022/12/23 07:01:00;;;;;;;64.97;21.33;;;;;;;-145.18;100.00;46689.69;4993484;28;20038;-73
2022/12/23 07:03:25;;;;;;;56.70;21.90;;;;;;;-145.18;100.00;46689.69;5007881;28;20133;-73
2022/12/23 07:05:50;;;;;;;68.20;20.67;;;;;;;-145.18;100.00;46699.47;4991267;28;20034;-73
2022/12/23 07:08:19;;;;;;;63.73;21.73;;;;;;;-145.18;100.00;46699.47;5007533;28;20026;-74
2022/12/23 07:10:44;;;;;;;57.20;23.23;;;;;;;-145.18;100.00;46709.22;4992830;28;20034;-73
2022/12/23 07:13:10;;;;;;;57.00;22.00;;;;;;;-145.18;100.00;46687.75;4992358;28;20034;-74
2022/12/23 07:15:36;;;;;;;56.67;22.90;;;;;;;-145.18;100.00;46703.38;4991784;28;20039;-73
2022/12/23 07:18:02;;;;;;;65.90;24.73;;;;;;;-145.18;100.00;46697.50;5005209;28;20029;-73
2022/12/23 07:20:27;;;;;;;65.93;22.83;;;;;;;-145.18;100.00;46705.31;4992858;28;20031;-74
2022/12/23 07:22:54;;;;;;;55.57;22.60;;;;;;;-145.18;100.00;46713.13;4992323;28;20561;-74
2022/12/23 07:25:20;;;;;;;56.33;24.13;;;;;;;-145.18;100.00;46713.13;4992099;28;20116;-73
2022/12/23 07:27:45;;;;;;;58.83;22.33;;;;;;;-145.18;100.00;46695.56;4992696;28;20097;-74
2022/12/23 07:30:11;;;;;;;56.10;22.40;;;;;;;-145.18;100.00;46691.66;4991000;28;20042;-74
2022/12/23 07:32:36;;;;;;;55.03;22.10;;;;;;;-145.18;100.00;46697.50;4997667;28;20026;-74
2022/12/23 07:35:02;;;;;;;48.93;21.17;;;;;;;-145.18;100.00;46699.47;5004584;28;20045;-74
2022/12/23 07:37:27;;;;;;;46.57;20.77;;;;;;;-145.18;100.00;46689.69;4978097;28;20031;-74
2022/12/23 07:39:52;;;;;;;46.73;21.13;;;;;;;-145.18;100.00;46711.19;5005250;28;20117;-74
2022/12/23 07:42:18;;;;;;;41.47;20.33;;;;;;;-145.18;100.00;46691.66;5002089;28;20606;-74
2022/12/23 07:44:43;;;;;;;44.03;20.57;;;;;;;-145.18;100.00;46697.50;4992332;28;20104;-73
2022/12/23 07:47:09;;;;;;;49.70;20.53;;;;;;;-145.18;100.00;46705.31;4991483;28;20446;-74
2022/12/23 07:49:35;;;;;;;43.67;21.13;;;;;;;-145.18;100.00;46697.50;5004063;28;20506;-74
2022/12/23 07:52:00;;;;;;;47.80;20.03;;;;;;;-145.18;100.00;46697.50;4990847;28;20072;-74
2022/12/23 07:54:26;;;;;;;46.53;20.80;;;;;;;-145.18;100.00;46699.47;4994588;28;20073;-73
2022/12/23 07:56:51;;;;;;;42.83;19.40;;;;;;;-145.18;100.00;46707.28;4998512;28;20490;-73
2022/12/23 07:59:16;;;;;;;42.20;19.77;;;;;;;-145.18;100.00;46699.47;4999399;28;20115;-73
2022/12/23 08:01:42;;;;;;;46.50;20.67;;;;;;;-145.18;100.00;46701.41;5009989;28;20038;-73
2022/12/23 08:04:08;;;;;;;37.80;19.50;;;;;;;-145.18;100.00;46711.19;5008498;28;20133;-71
2022/12/23 08:06:35;;;;;;;41.40;19.00;;;;;;;-145.18;100.00;46697.50;5001909;28;20561;-72
2022/12/23 08:09:01;;;;;;;50.07;20.60;;;;;;;-145.18;100.00;46693.59;4993527;28;20038;-71
2022/12/23 08:11:26;;;;;;;43.43;20.67;;;;;;;-145.18;100.00;46701.41;4994640;28;20027;-71
2022/12/23 08:13:52;;;;;;;45.37;21.83;;;;;;;-145.18;100.00;46697.50;4996347;28;20045;-72
2022/12/23 08:16:17;;;;;;;45.83;21.93;;;;;;;-145.18;100.00;46703.38;4997742;28;20526;-71
2022/12/23 08:18:43;;;;;;;51.17;20.43;;;;;;;-145.18;100.00;46701.41;5000372;28;20070;-71
2022/12/23 08:21:18;;;;;;;55.07;22.13;;;;;;;-145.18;100.00;46699.47;5003905;28;20041;-72
2022/12/23 08:23:45;;;;;;;53.43;22.23;;;;;;;-145.18;100.00;46701.41;4993252;28;20529;-71
2022/12/23 08:26:20;;;;;;;59.23;23.20;;;;;;;-145.18;100.00;46709.22;4995507;28;20069;-72
2022/12/23 08:28:46;;;;;;;52.53;23.20;;;;;;;-145.18;100.00;46709.22;5000430;28;20038;-71
2022/12/23 08:31:16;;;;;;;58.33;23.17;;;;;;;-145.18;100.00;46707.28;5006016;28;20066;-71
2022/12/23 08:33:44;;;;;;;57.53;23.67;;;;;;;-145.18;100.00;46701.41;5001340;28;20604;-72
2022/12/23 08:36:13;;;;;;;63.27;24.90;;;;;;;-145.18;100.00;46705.31;4995261;28;20038;-72
2022/12/23 08:38:38;;;;;;;59.67;25.60;;;;;;;-145.18;100.00;46701.41;5001320;28;20035;-71
2022/12/23 08:41:09;;;;;;;55.47;22.73;;;;;;;-145.18;100.00;46697.50;5004495;28;20044;-71
2022/12/23 08:43:35;;;;;;;52.60;22.80;;;;;;;-145.18;100.00;46711.19;5008219;28;20088;-71
2022/12/23 08:46:00;;;;;;;66.97;25.93;;;;;;;-145.18;100.00;46701.41;4994151;28;20117;-71
2022/12/23 08:48:25;;;;;;;54.57;24.67;;;;;;;-145.18;100.00;46699.47;5001761;28;20044;-71
2022/12/23 08:50:51;;;;;;;65.80;25.20;;;;;;;-145.18;100.00;46717.03;4996101;28;20062;-71
2022/12/23 08:53:16;;;;;;;57.37;24.73;;;;;;;-145.18;100.00;46697.50;4995925;28;20026;-71
2022/12/23 08:55:44;;;;;;;62.60;25.23;;;;;;;-145.18;100.00;46711.19;5005119;28;20077;-71
2022/12/23 08:58:11;;;;;;;65.07;24.53;;;;;;;-145.18;100.00;46705.31;5002872;28;20042;-71
2022/12/23 09:00:37;;;;;;;58.67;24.57;;;;;;;-145.18;100.00;46703.38;5000657;28;20087;-71
2022/12/23 09:03:03;;;;;;;60.10;26.07;;;;;;;-145.18;100.00;46695.56;5006308;28;20054;-71
2022/12/23 09:05:29;;;;;;;60.73;24.93;;;;;;;-145.18;100.00;46697.50;5004056;28;20052;-71
2022/12/23 09:07:55;;;;;;;66.43;26.03;;;;;;;-145.18;100.00;46707.28;4999119;28;20421;-71
2022/12/23 09:10:22;;;;;;;63.47;25.90;;;;;;;-145.18;100.00;46691.66;4991229;28;20038;-71
2022/12/23 09:12:47;;;;;;;61.30;25.70;;;;;;;-145.18;100.00;46701.41;4997392;28;20089;-72
2022/12/23 09:15:13;;;;;;;59.10;25.40;;;;;;;-145.18;100.00;46703.38;4994902;28;20447;-71
2022/12/23 09:17:38;;;;;;;64.13;27.60;;;;;;;-145.18;100.00;46705.31;4997912;28;20044;-71
2022/12/23 09:20:04;;;;;;;57.97;25.30;;;;;;;-145.18;100.00;46709.22;5001608;28;20483;-71
2022/12/23 09:22:32;;;;;;;58.77;24.33;;;;;;;-145.18;100.00;46715.09;5001650;28;20068;-71
2022/12/23 09:24:57;;;;;;;56.40;25.70;;;;;;;-145.18;100.00;46697.50;4999083;28;20037;-71
2022/12/23 09:27:23;;;;;;;63.20;26.67;;;;;;;-145.18;100.00;46709.22;5000883;28;20095;-72
2022/12/23 09:29:48;;;;;;;59.90;26.77;;;;;;;-145.18;100.00;46699.47;4992156;28;20380;-71
2022/12/23 09:32:14;;;;;;;56.47;25.97;;;;;;;-145.18;100.00;46699.47;4990525;28;20046;-71
2022/12/23 09:34:39;;;;;;;51.77;24.47;;;;;;;-145.18;100.00;46711.19;4991710;28;20045;-72
2022/12/23 09:37:04;;;;;;;58.43;25.47;;;;;;;-145.18;100.00;46703.38;4989965;28;20042;-72
2022/12/23 09:39:30;;;;;;;60.70;25.57;;;;;;;-145.18;100.00;46693.59;4990459;28;20049;-71
2022/12/23 09:42:10;;;;;;;54.53;24.87;;;;;;;-145.18;100.00;46697.50;4990359;28;20065;-72
2022/12/23 09:44:56;;;;;;;55.87;24.90;;;;;;;-145.18;100.00;46707.28;4990022;28;20523;-71
2022/12/23 09:47:25;;;;;;;62.17;25.95;;;;;;;-145.18;100.00;46693.59;5003342;28;20038;-71
2022/12/23 09:49:56;;;;;;;60.50;27.17;;;;;;;-145.18;100.00;46699.47;4994981;28;20093;-71
2022/12/23 09:52:29;;;;;;;68.03;28.00;;;;;;;-145.18;100.00;46711.19;4992265;28;20040;-71
2022/12/23 09:54:55;;;;;;;78.53;29.10;;;;;;;-145.18;100.00;46711.19;4990125;28;20026;-71
2022/12/23 09:57:35;;;;;;;70.43;30.00;;;;;;;-145.18;100.00;46709.22;4990123;28;20529;-71
2022/12/23 10:00:30;;;;;;;78.30;31.57;;;;;;;-145.18;100.00;46709.22;4989992;28;20038;-72
2022/12/23 10:03:13;;;;;;;95.50;36.63;;;;;;;-145.18;100.00;46703.38;4988925;28;20042;-71
2022/12/23 10:06:12;;;;;;;90.87;36.20;;;;;;;-145.18;100.00;46697.50;4994795;28;20030;-71
2022/12/23 10:08:43;;;;;;;92.33;37.27;;;;;;;-145.18;100.00;46707.28;4998939;28;20037;-71
2022/12/23 10:11:19;;;;;;;89.80;38.17;;;;;;;-145.18;100.00;46705.31;4991439;28;20038;-71
2022/12/23 10:13:48;;;;;;;90.93;36.17;;;;;;;-145.18;100.00;46709.22;4988205;28;20030;-71
2022/12/23 10:16:18;;;;;;;92.73;36.77;;;;;;;-145.18;100.00;46715.09;4989814;28;20065;-71
2022/12/23 10:19:12;;;;;;;93.43;33.80;;;;;;;-145.18;100.00;46713.13;4991995;28;20025;-71
2022/12/23 10:21:51;;;;;;;82.03;33.70;;;;;;;-145.18;100.00;46701.41;4995825;28;20479;-71
2022/12/23 10:24:25;;;;;;;79.77;31.67;;;;;;;-145.18;100.00;46693.59;4994364;28;20038;-71
2022/12/23 10:26:56;;;;;;;84.37;32.90;;;;;;;-145.18;100.00;46707.28;4989796;28;20097;-71
2022/12/23 10:29:28;;;;;;;81.23;30.53;;;;;;;-145.18;100.00;46701.41;4992917;28;20049;-71
2022/12/23 10:32:00;;;;;;;63.90;26.87;;;;;;;-145.18;100.00;46691.66;4993406;28;20030;-71
2022/12/23 10:34:36;;;;;;;71.50;25.03;;;;;;;-145.18;100.00;46715.09;4989248;28;20058;-71
2022/12/23 10:37:16;;;;;;;76.10;25.77;;;;;;;-145.18;100.00;46703.38;5000888;28;20069;-71
2022/12/23 10:40:00;;;;;;;67.17;24.13;;;;;;;-145.18;100.00;46697.50;4993480;28;20038;-71
2022/12/23 10:42:32;;;;;;;59.63;22.07;;;;;;;-145.18;100.00;46699.47;4993706;28;20034;-71
2022/12/23 10:45:16;;;;;;;58.43;22.83;;;;;;;-145.18;100.00;46697.50;4992988;28;20138;-71
2022/12/23 10:47:53;;;;;;;59.07;22.97;;;;;;;-145.18;100.00;46699.47;4995417;28;20573;-71
2022/12/23 10:51:02;;;;;;;56.87;21.20;;;;;;;-145.18;100.00;46709.22;5008583;28;20153;-71
2022/12/23 10:54:15;;;;;;;50.57;22.07;;;;;;;-145.18;100.00;46699.47;4989538;28;20482;-71
2022/12/23 10:56:42;;;;;;;52.80;21.60;;;;;;;-145.18;100.00;46701.41;4974951;28;20042;-71
2022/12/23 10:59:14;;;;;;;49.63;21.57;;;;;;;-145.18;100.00;46709.22;5012149;28;20033;-71
2022/12/23 11:01:42;;;;;;;51.47;22.40;;;;;;;-145.18;100.00;46711.19;5007477;28;20034;-71
2022/12/23 11:04:13;;;;;;;49.23;21.13;;;;;;;-145.18;100.00;46709.22;5005886;28;20347;-71
2022/12/23 11:06:47;;;;;;;48.10;22.13;;;;;;;-145.18;100.00;46709.22;4999520;28;20042;-71
2022/12/23 11:09:23;;;;;;;42.67;19.23;;;;;;;-145.18;100.00;46697.50;4992525;28;20505;-71
2022/12/23 11:11:58;;;;;;;42.13;18.87;;;;;;;-145.18;100.00;46705.31;4996038;28;20099;-71
2022/12/23 11:14:41;;;;;;;38.90;19.20;;;;;;;-145.18;100.00;46705.31;5003021;28;20038;-71
2022/12/23 11:17:22;;;;;;;38.13;18.03;;;;;;;-145.18;100.00;46709.22;4992542;28;20030;-71
2022/12/23 11:20:16;;;;;;;45.00;20.00;;;;;;;-145.18;100.00;46713.13;4992453;28;20076;-71
2022/12/23 11:22:49;;;;;;;37.57;17.50;;;;;;;-145.18;100.00;46711.19;4983021;28;20411;-71
2022/12/23 11:25:39;;;;;;;43.80;19.50;;;;;;;-145.18;100.00;46699.47;4992327;28;20049;-71
2022/12/23 11:28:15;;;;;;;43.90;17.33;;;;;;;-145.18;100.00;46709.22;4992335;28;20030;-71
2022/12/23 11:30:49;;;;;;;40.87;17.93;;;;;;;-145.18;100.00;46711.19;4992347;28;20093;-71
2022/12/23 11:33:35;;;;;;;39.47;19.00;;;;;;;-145.18;100.00;46709.22;4992403;28;20040;-71
2022/12/23 11:36:12;;;;;;;44.38;18.77;;;;;;;-145.18;100.00;46703.38;4992273;28;20027;-71